Terminal Aerodrome Forecast
Issued by NWS Brownsville, TX

Current Version | Previous Version | Text Only | Print | Product List | Glossary On
Versions: 1 2 3 4 5 6 7 8 9 10 11 12 13 14 15 16
000
FTUS44 KBRO 242328
TAFMFE
TAF
KMFE 242328Z 2500/2524 01013KT P6SM SKC
     FM250200 03008KT P6SM SKC
     FM251500 04010KT P6SM SKC
     FM251800 07010G16KT P6SM FEW050 SCT250=

USA.gov is the U.S. government's official web portal to all federal, state and local government web resources and services.